Time;durP1;ratioP1;P1;durP2;ratioP2;P2;SDS_P1;SDS_P2;PMS_P1;PMS_P2;Temp;Humidity;BMP_temperature;BMP_pressure;BME280_temperature;BME280_humidity;BME280_pressure;Samples;Min_cycle;Max_cycle;Signal;HPM_P1;HPM_P2
2022/07/28 00:00:56;;;;;;;3.15;1.40;;;;;;;15.73;62.28;101778.38;4676567;30;20062;-83
2022/07/28 00:03:23;;;;;;;4.30;1.50;;;;;;;15.73;62.58;101778.38;4698161;30;20580;-84
2022/07/28 00:05:55;;;;;;;5.07;1.65;;;;;;;15.74;61.88;101769.09;4698319;30;20047;-82
2022/07/28 00:08:26;;;;;;;4.57;1.70;;;;;;;15.78;62.16;101777.69;4692718;30;20124;-81
2022/07/28 00:10:57;;;;;;;8.00;1.80;;;;;;;15.71;61.86;101769.56;4695093;30;20098;-83
2022/07/28 00:13:35;;;;;;;4.70;1.48;;;;;;;15.60;62.23;101771.25;4694314;30;20128;-81
2022/07/28 00:16:08;;;;;;;3.65;1.80;;;;;;;15.68;62.03;101777.41;4695072;30;20037;-83
2022/07/28 00:18:56;;;;;;;5.63;2.28;;;;;;;15.58;62.04;101772.56;4694729;30;20034;-80
2022/07/28 00:21:37;;;;;;;3.55;1.70;;;;;;;15.54;62.66;101776.81;4694796;30;20034;-82
2022/07/28 00:24:10;;;;;;;6.28;1.80;;;;;;;15.53;62.19;101777.88;4694347;30;20478;-82
2022/07/28 00:26:52;;;;;;;5.65;1.52;;;;;;;15.53;62.79;101784.16;4693167;30;20453;-81
2022/07/28 00:29:32;;;;;;;6.70;1.88;;;;;;;15.42;62.71;101769.44;4693708;30;20034;-83
2022/07/28 00:31:59;;;;;;;5.05;1.50;;;;;;;15.39;62.62;101775.38;4694559;30;20563;-80
2022/07/28 00:34:25;;;;;;;3.78;1.45;;;;;;;15.43;62.63;101762.09;4695071;30;20361;-78
2022/07/28 00:36:50;;;;;;;9.93;1.65;;;;;;;15.47;62.51;101770.63;4695241;30;20033;-84
2022/07/28 00:39:16;;;;;;;5.20;1.70;;;;;;;15.38;62.65;101762.81;4680716;30;20419;-82
2022/07/28 00:41:42;;;;;;;4.20;1.48;;;;;;;15.41;62.54;101769.66;4693636;30;20409;-83
2022/07/28 00:44:08;;;;;;;3.17;1.38;;;;;;;15.41;62.72;101767.81;4679493;30;20030;-82
2022/07/28 00:46:34;;;;;;;5.30;1.52;;;;;;;15.37;62.83;101777.50;4694843;30;20078;-82
2022/07/28 00:49:00;;;;;;;2.55;1.58;;;;;;;15.41;62.72;101770.53;4680785;30;20033;-81
2022/07/28 00:51:27;;;;;;;5.18;1.58;;;;;;;15.34;63.15;101771.66;4692138;30;20373;-82
2022/07/28 00:53:54;;;;;;;5.80;1.70;;;;;;;15.36;62.70;101756.75;4680577;30;20129;-82
2022/07/28 00:56:20;;;;;;;4.63;2.05;;;;;;;15.37;62.75;101755.69;4680593;30;20057;-79
2022/07/28 00:58:47;;;;;;;4.30;1.75;;;;;;;15.32;63.14;101744.63;4678889;30;20037;-81
2022/07/28 01:01:16;;;;;;;5.13;1.70;;;;;;;15.21;63.15;101748.19;4679187;30;20057;-80
2022/07/28 01:03:44;;;;;;;4.90;1.50;;;;;;;15.22;63.29;101758.03;4683386;30;20602;-83
2022/07/28 01:06:33;;;;;;;4.13;1.70;;;;;;;15.21;63.57;101756.38;4697615;30;20081;-82
2022/07/28 01:10:37;;;;;;;5.22;1.98;;;;;;;15.20;62.85;101763.72;4685445;30;20168;-82
2022/07/28 01:16:25;;;;;;;5.22;1.50;;;;;;;15.16;63.63;101758.97;4583073;31;20646;-82
2022/07/28 01:19:00;;;;;;;10.25;1.88;;;;;;;15.10;63.65;101757.16;4611932;31;20135;-81
2022/07/28 01:21:33;;;;;;;7.55;1.80;;;;;;;15.00;64.04;101750.38;4652296;30;20039;-82
2022/07/28 01:24:30;;;;;;;9.10;2.00;;;;;;;15.10;63.87;101752.56;4666324;30;20026;-82
2022/07/28 01:30:48;;;;;;;10.23;2.05;;;;;;;15.11;63.97;101756.91;4677841;30;20049;-81
2022/07/28 01:43:37;;;;;;;4.95;2.20;;;;;;;14.91;64.69;101740.88;4564189;31;20460;-82
2022/07/28 01:46:51;;;;;;;;;;;;;;;;;;;;;
2022/07/28 02:04:52;;;;;;;7.05;2.10;;;;;;;14.75;65.16;101722.47;4484356;31;20045;-80
2022/07/28 02:14:23;;;;;;;8.75;2.00;;;;;;;14.66;65.29;101722.78;4563315;31;20075;-79
2022/07/28 02:17:31;;;;;;;;;;;;;;;;;;;;;
2022/07/28 02:20:07;;;;;;;5.10;2.50;;;;;;;14.46;66.13;101708.56;4580844;31;20673;-83
2022/07/28 02:22:37;;;;;;;10.10;2.10;;;;;;;14.46;66.03;101708.56;4613521;31;20385;-77
2022/07/28 02:25:10;;;;;;;6.15;2.20;;;;;;;14.42;65.95;101716.38;4613193;31;20099;-77
2022/07/28 02:27:44;;;;;;;7.15;2.40;;;;;;;14.38;66.60;101715.16;4638417;30;20120;-78
2022/07/28 02:30:50;;;;;;;8.05;2.20;;;;;;;14.31;66.71;101712.53;4667572;30;20034;-75
2022/07/28 02:33:23;;;;;;;9.18;2.45;;;;;;;14.28;66.28;101707.56;4613099;31;20040;-80
2022/07/28 02:35:55;;;;;;;8.20;2.08;;;;;;;14.26;66.77;101714.28;4598374;31;20032;-79
2022/07/28 02:38:53;;;;;;;6.47;2.25;;;;;;;14.31;66.67;101709.81;4596683;31;20084;-81
2022/07/28 02:41:28;;;;;;;6.20;2.17;;;;;;;14.28;66.77;101710.28;4610439;31;20058;-82
2022/07/28 02:44:10;;;;;;;5.35;2.40;;;;;;;14.25;66.54;101705.28;4613022;30;20068;-78
2022/07/28 02:46:43;;;;;;;5.57;2.30;;;;;;;14.23;66.86;101710.13;4664711;30;20043;-82
2022/07/28 02:49:24;;;;;;;5.28;2.10;;;;;;;14.22;66.65;101705.75;4665005;30;20054;-81
2022/07/28 02:51:53;;;;;;;6.03;2.30;;;;;;;14.15;67.13;101703.09;4665111;30;20038;-82
2022/07/28 02:54:20;;;;;;;5.75;2.10;;;;;;;14.14;67.13;101697.88;4664812;30;20047;-81
2022/07/28 02:56:50;;;;;;;4.97;2.20;;;;;;;14.14;66.87;101706.88;4680467;30;20113;-81
2022/07/28 02:59:18;;;;;;;8.00;2.95;;;;;;;14.14;67.22;101715.03;4681166;30;20038;-81
2022/07/28 03:01:45;;;;;;;6.78;2.40;;;;;;;14.09;67.26;101708.63;4685688;30;20538;-79
2022/07/28 03:04:13;;;;;;;4.88;2.60;;;;;;;13.97;67.38;101705.84;4699235;30;20029;-81
2022/07/28 03:06:40;;;;;;;5.10;2.20;;;;;;;13.90;67.46;101705.88;4698950;30;20095;-80
2022/07/28 03:09:10;;;;;;;4.93;2.28;;;;;;;13.94;67.46;101717.16;4698947;30;20463;-82
2022/07/28 03:11:50;;;;;;;8.07;2.38;;;;;;;13.92;67.11;101690.19;4698860;30;20380;-78
2022/07/28 03:14:16;;;;;;;5.18;2.10;;;;;;;13.89;67.53;101706.97;4651075;30;20113;-79
2022/07/28 03:16:42;;;;;;;7.97;2.20;;;;;;;13.92;66.96;101722.84;4650592;30;20699;-82
2022/07/28 03:19:11;;;;;;;6.57;2.50;;;;;;;13.80;67.19;101713.78;4664668;30;20042;-81
2022/07/28 03:21:40;;;;;;;12.25;2.53;;;;;;;13.85;67.40;101697.59;4664131;30;20070;-79
2022/07/28 03:24:07;;;;;;;5.68;1.90;;;;;;;13.85;66.75;101711.19;4650450;30;20142;-81
2022/07/28 03:26:46;;;;;;;4.45;1.98;;;;;;;13.89;66.75;101719.72;4664169;30;20062;-81
2022/07/28 03:29:13;;;;;;;9.23;2.33;;;;;;;13.83;66.57;101697.81;4667337;30;20041;-82
2022/07/28 03:31:41;;;;;;;6.05;2.10;;;;;;;13.80;66.59;101702.88;4666533;30;20033;-81
2022/07/28 03:34:11;;;;;;;4.13;2.00;;;;;;;13.70;67.15;101697.13;4666851;30;20374;-82
2022/07/28 03:36:44;;;;;;;11.07;2.00;;;;;;;13.79;66.93;101717.53;4681325;30;20069;-80
2022/07/28 03:39:14;;;;;;;5.43;2.08;;;;;;;13.70;67.03;101703.38;4682806;30;20053;-83
2022/07/28 03:41:42;;;;;;;6.00;2.20;;;;;;;13.77;66.97;101719.66;4680318;30;20040;-78
2022/07/28 03:44:12;;;;;;;5.20;2.00;;;;;;;13.68;67.10;101712.81;4667103;30;20076;-79
2022/07/28 03:46:46;;;;;;;6.70;2.50;;;;;;;13.65;67.33;101717.66;4666850;30;20171;-81
2022/07/28 03:49:15;;;;;;;5.85;2.25;;;;;;;13.64;67.50;101707.00;4667015;30;20034;-83
2022/07/28 03:51:42;;;;;;;4.43;2.10;;;;;;;13.57;67.65;101703.53;4666928;30;20033;-78
2022/07/28 03:54:11;;;;;;;6.03;2.50;;;;;;;13.59;67.45;101710.41;4680282;30;20037;-79
2022/07/28 03:56:47;;;;;;;6.10;2.30;;;;;;;13.53;67.76;101708.59;4680103;30;20037;-82
2022/07/28 03:59:17;;;;;;;3.58;2.33;;;;;;;13.52;67.42;101706.91;4667094;30;20033;-80
2022/07/28 04:01:46;;;;;;;5.53;2.30;;;;;;;13.53;67.29;101703.16;4681086;30;20581;-82
2022/07/28 04:04:13;;;;;;;6.95;2.30;;;;;;;13.54;67.50;101706.69;4730191;30;20044;-81
2022/07/28 04:06:39;;;;;;;2.45;1.90;;;;;;;13.48;67.28;101700.25;4730086;30;20083;-79
2022/07/28 04:09:06;;;;;;;4.78;2.20;;;;;;;13.45;67.70;101700.69;4730210;30;20040;-80
2022/07/28 04:11:36;;;;;;;5.47;2.63;;;;;;;13.47;67.53;101701.31;4722941;30;20060;-81
2022/07/28 04:14:04;;;;;;;6.75;2.47;;;;;;;13.46;67.14;101708.63;4711929;30;20038;-80
2022/07/28 04:16:31;;;;;;;5.38;2.05;;;;;;;13.42;67.69;101706.59;4710191;30;20128;-79
2022/07/28 04:19:00;;;;;;;3.65;2.13;;;;;;;13.44;67.79;101716.19;4698193;30;20065;-81
2022/07/28 04:21:35;;;;;;;8.38;2.55;;;;;;;13.39;67.93;101702.44;4698029;30;20478;-79
2022/07/28 04:24:03;;;;;;;5.45;2.30;;;;;;;13.42;68.06;101704.72;4698030;30;20469;-79
2022/07/28 04:26:31;;;;;;;6.70;2.30;;;;;;;13.41;67.84;101703.03;4697569;30;20033;-81
2022/07/28 04:28:59;;;;;;;4.75;2.72;;;;;;;13.41;68.12;101703.03;4697432;30;20479;-77
2022/07/28 04:31:29;;;;;;;6.80;2.90;;;;;;;13.49;68.13;101701.09;4712449;30;20040;-82
2022/07/28 04:33:57;;;;;;;4.50;2.47;;;;;;;13.44;68.20;101699.06;4712325;30;20029;-79
2022/07/28 04:36:26;;;;;;;6.95;2.00;;;;;;;13.46;68.20;101707.81;4712206;30;20029;-80
2022/07/28 04:38:56;;;;;;;9.18;2.80;;;;;;;13.38;68.36;101708.09;4711681;30;20037;-80
2022/07/28 04:41:23;;;;;;;8.18;2.80;;;;;;;13.37;68.64;101698.28;4696926;30;20378;-81
2022/07/28 04:43:49;;;;;;;6.50;2.38;;;;;;;13.36;68.48;101696.59;4684799;30;20048;-78
2022/07/28 04:46:16;;;;;;;5.55;2.30;;;;;;;13.40;68.36;101697.81;4698715;30;20053;-79
2022/07/28 04:48:44;;;;;;;6.60;2.80;;;;;;;13.36;68.65;101685.72;4697935;30;20038;-78
2022/07/28 04:51:11;;;;;;;7.55;2.65;;;;;;;13.36;68.71;101692.03;4698509;30;20125;-82
2022/07/28 04:53:41;;;;;;;5.22;2.50;;;;;;;13.37;68.89;101692.84;4698298;30;20042;-78
2022/07/28 04:56:11;;;;;;;8.05;3.20;;;;;;;13.40;69.19;101698.66;4698488;30;20443;-82
2022/07/28 04:58:38;;;;;;;5.20;2.35;;;;;;;13.47;68.85;101698.59;4710748;30;20037;-79
2022/07/28 05:01:06;;;;;;;6.75;2.30;;;;;;;13.47;68.86;101701.31;4698796;30;20419;-80
2022/07/28 05:03:35;;;;;;;5.90;2.50;;;;;;;13.44;69.31;101697.16;4715582;30;20055;-79
2022/07/28 05:06:02;;;;;;;6.55;2.53;;;;;;;13.53;69.19;101692.28;4733119;30;20120;-81
2022/07/28 05:08:28;;;;;;;6.68;2.70;;;;;;;13.43;69.31;101694.66;4732395;30;20033;-79
2022/07/28 05:10:55;;;;;;;6.30;2.60;;;;;;;13.42;70.07;101696.56;4733062;30;20048;-79
2022/07/28 05:13:22;;;;;;;7.45;2.80;;;;;;;13.42;70.08;101701.16;4702585;30;20074;-79
2022/07/28 05:15:50;;;;;;;3.70;2.47;;;;;;;13.43;70.15;101700.09;4700693;30;20033;-82
2022/07/28 05:18:17;;;;;;;6.90;2.55;;;;;;;13.47;69.95;101699.44;4715398;30;20083;-80
2022/07/28 05:20:44;;;;;;;5.40;2.60;;;;;;;13.52;69.81;101698.75;4712371;30;20037;-82
2022/07/28 05:23:11;;;;;;;4.53;2.50;;;;;;;13.58;69.74;101706.00;4699390;30;20090;-82
2022/07/28 05:25:44;;;;;;;6.00;2.70;;;;;;;13.62;69.94;101711.84;4700340;30;20394;-78
2022/07/28 05:28:12;;;;;;;9.82;2.92;;;;;;;13.62;70.36;101707.25;4700044;30;20366;-81
2022/07/28 05:30:38;;;;;;;8.30;2.50;;;;;;;13.73;69.97;101710.28;4715045;30;20128;-79
2022/07/28 05:33:07;;;;;;;7.43;2.38;;;;;;;13.80;70.27;101711.03;4700749;30;20494;-80
2022/07/28 05:35:37;;;;;;;12.90;2.72;;;;;;;13.86;70.30;101706.56;4700534;30;20036;-80
2022/07/28 05:38:04;;;;;;;8.23;3.08;;;;;;;13.93;69.20;101707.34;4715096;30;20026;-78
2022/07/28 05:40:34;;;;;;;9.55;2.95;;;;;;;13.93;69.74;101701.91;4700447;30;20034;-78
2022/07/28 05:43:04;;;;;;;11.65;2.58;;;;;;;13.96;69.74;101707.69;4699440;30;20033;-81
2022/07/28 05:45:32;;;;;;;8.13;3.00;;;;;;;14.04;69.47;101703.88;4698876;30;20438;-80
2022/07/28 05:48:02;;;;;;;7.60;2.70;;;;;;;14.09;69.52;101706.72;4700493;30;20030;-79
2022/07/28 05:50:30;;;;;;;9.65;2.78;;;;;;;14.19;69.50;101706.19;4714965;30;20407;-77
2022/07/28 05:52:57;;;;;;;5.40;2.42;;;;;;;14.22;68.90;101707.63;4715082;30;20032;-77
2022/07/28 05:55:27;;;;;;;7.72;2.63;;;;;;;14.25;68.65;101718.06;4714540;30;20038;-78
2022/07/28 05:57:56;;;;;;;9.38;2.78;;;;;;;14.30;69.04;101708.16;4714725;30;20029;-77
2022/07/28 06:00:23;;;;;;;8.48;2.63;;;;;;;14.27;68.72;101703.16;4713533;30;20116;-80
2022/07/28 06:02:50;;;;;;;6.38;2.40;;;;;;;14.42;69.20;101710.94;4726422;30;20506;-81
2022/07/28 06:05:21;;;;;;;5.15;2.33;;;;;;;14.45;69.01;101718.66;4717794;30;20546;-77
2022/07/28 06:07:49;;;;;;;9.60;2.50;;;;;;;14.49;68.58;101717.13;4699721;30;20395;-80
2022/07/28 06:10:18;;;;;;;8.35;2.80;;;;;;;14.49;68.72;101710.84;4699999;30;20034;-78
2022/07/28 06:12:46;;;;;;;12.20;2.92;;;;;;;14.49;69.00;101717.13;4700027;30;20124;-80
2022/07/28 06:15:18;;;;;;;7.32;2.50;;;;;;;14.56;69.10;101705.31;4699353;30;20037;-79
2022/07/28 06:17:46;;;;;;;12.05;2.72;;;;;;;14.61;68.21;101713.66;4714414;30;20025;-81
2022/07/28 06:20:13;;;;;;;7.38;2.50;;;;;;;14.61;68.04;101698.13;4700089;30;20117;-79
2022/07/28 06:22:47;;;;;;;8.85;2.60;;;;;;;14.71;68.04;101706.56;4714494;30;20053;-79
2022/07/28 06:25:15;;;;;;;5.57;2.35;;;;;;;14.65;68.32;101693.88;4713588;30;20404;-79
2022/07/28 06:27:44;;;;;;;8.95;2.78;;;;;;;14.78;67.34;101705.63;4699275;30;20390;-78
2022/07/28 06:30:13;;;;;;;5.55;2.20;;;;;;;14.75;67.52;101704.22;4699427;30;20036;-81
2022/07/28 06:32:39;;;;;;;6.25;2.58;;;;;;;14.79;67.30;101704.59;4714306;30;20033;-77
2022/07/28 06:35:06;;;;;;;8.45;2.92;;;;;;;14.82;67.43;101701.41;4700130;30;20113;-80
2022/07/28 06:37:38;;;;;;;6.82;2.30;;;;;;;14.83;67.68;101701.16;4714319;30;20030;-80
2022/07/28 06:40:04;;;;;;;5.60;2.33;;;;;;;14.92;67.11;101706.28;4714556;30;20597;-78
2022/07/28 06:42:30;;;;;;;10.02;2.70;;;;;;;14.97;66.59;101711.88;4715430;30;20030;-81
2022/07/28 06:44:57;;;;;;;6.88;2.15;;;;;;;14.99;67.19;101707.84;4699992;30;20034;-81
2022/07/28 06:47:24;;;;;;;7.22;2.65;;;;;;;15.03;66.37;101706.28;4714556;30;20040;-81
2022/07/28 06:50:15;;;;;;;10.75;2.45;;;;;;;15.16;66.77;101697.09;4700264;30;20048;-79
2022/07/28 06:53:10;;;;;;;8.13;2.55;;;;;;;15.29;66.08;101720.56;4699078;30;20029;-82
2022/07/28 06:55:36;;;;;;;6.85;2.28;;;;;;;15.24;65.55;101720.44;4684193;30;20045;-78
2022/07/28 06:58:04;;;;;;;4.72;2.15;;;;;;;15.26;65.14;101715.59;4699128;30;20042;-80
2022/07/28 07:03:52;;;;;;;8.77;2.40;;;;;;;15.29;65.16;101714.28;4714491;30;20067;-73
2022/07/28 07:06:17;;;;;;;15.15;2.80;;;;;;;15.38;65.55;101721.91;4707430;30;20459;-69
2022/07/28 07:08:42;;;;;;;6.60;2.20;;;;;;;15.43;65.95;101723.94;4694654;30;20041;-73
2022/07/28 07:11:09;;;;;;;6.43;2.10;;;;;;;15.51;65.45;101722.75;4697835;30;20033;-76
2022/07/28 07:13:35;;;;;;;8.95;2.20;;;;;;;15.64;65.38;101722.50;4699296;30;20043;-76
2022/07/28 07:16:01;;;;;;;7.68;2.15;;;;;;;15.67;64.07;101722.03;4698284;30;20061;-73
2022/07/28 07:18:26;;;;;;;9.07;2.10;;;;;;;15.79;64.42;101721.22;4700194;30;20065;-73
2022/07/28 07:20:53;;;;;;;11.10;2.47;;;;;;;15.91;64.00;101714.69;4700963;30;20447;-74
2022/07/28 07:23:18;;;;;;;8.68;2.17;;;;;;;16.07;63.59;101717.72;4698166;30;20474;-75
2022/07/28 07:25:43;;;;;;;3.85;2.10;;;;;;;16.13;63.25;101724.97;4700110;30;20036;-69
2022/07/28 07:28:09;;;;;;;3.30;1.98;;;;;;;16.16;62.89;101724.47;4700150;30;20132;-70
2022/07/28 07:30:34;;;;;;;6.15;2.00;;;;;;;16.20;62.94;101711.16;4699921;30;20067;-73
2022/07/28 07:32:59;;;;;;;5.15;2.28;;;;;;;16.20;63.41;101714.75;4699948;30;20057;-72
2022/07/28 07:35:25;;;;;;;7.20;2.38;;;;;;;16.22;62.20;101720.78;4700019;30;20060;-69
2022/07/28 07:37:50;;;;;;;8.50;2.45;;;;;;;16.13;61.44;101708.56;4698983;30;20541;-72
2022/07/28 07:40:15;;;;;;;4.35;1.88;;;;;;;16.07;62.35;101718.56;4699099;30;20025;-70
2022/07/28 07:42:41;;;;;;;7.68;2.00;;;;;;;16.14;62.56;101704.78;4699187;30;20375;-70
2022/07/28 07:45:06;;;;;;;6.07;2.05;;;;;;;16.22;62.67;101714.50;4699797;30;20045;-71
2022/07/28 07:47:32;;;;;;;6.88;2.40;;;;;;;16.25;62.12;101700.34;4699369;30;20033;-72
2022/07/28 07:49:57;;;;;;;6.35;1.92;;;;;;;16.35;62.02;101706.03;4697359;30;20371;-72
2022/07/28 07:52:22;;;;;;;4.78;2.10;;;;;;;16.37;61.63;101706.59;4693219;30;20490;-72
2022/07/28 07:54:48;;;;;;;6.65;1.85;;;;;;;16.45;61.13;101711.66;4685826;30;20041;-70
2022/07/28 07:57:13;;;;;;;7.25;2.72;;;;;;;16.47;61.21;101715.00;4692310;30;20045;-69
2022/07/28 07:59:38;;;;;;;7.82;2.13;;;;;;;16.46;61.01;101707.88;4694174;30;20517;-70
2022/07/28 08:02:04;;;;;;;6.47;2.17;;;;;;;16.53;61.08;101709.63;4689161;30;20054;-70
2022/07/28 08:04:29;;;;;;;8.30;2.40;;;;;;;16.57;61.81;101702.59;4699629;30;20041;-72
2022/07/28 08:06:55;;;;;;;8.15;1.85;;;;;;;16.62;61.66;101709.00;4696162;30;20038;-70
2022/07/28 08:09:20;;;;;;;6.13;2.08;;;;;;;16.70;60.04;101699.56;4682577;30;20423;-71
2022/07/28 08:11:45;;;;;;;5.50;2.17;;;;;;;16.72;60.36;101691.94;4681186;30;20170;-71
2022/07/28 08:14:11;;;;;;;4.65;1.90;;;;;;;16.79;60.17;101689.91;4681343;30;20031;-72
2022/07/28 08:16:36;;;;;;;9.57;2.40;;;;;;;16.80;59.92;101696.19;4681879;30;20468;-70
2022/07/28 08:19:03;;;;;;;4.10;1.63;;;;;;;16.84;60.22;101694.63;4682245;30;20348;-70
2022/07/28 08:21:28;;;;;;;4.45;1.67;;;;;;;16.95;59.59;101699.25;4682246;30;20097;-70
2022/07/28 08:23:54;;;;;;;11.73;2.20;;;;;;;16.99;59.65;101694.09;4666478;30;20041;-71
2022/07/28 08:26:21;;;;;;;7.60;1.85;;;;;;;17.08;59.74;101698.06;4682249;30;20069;-71
2022/07/28 08:28:46;;;;;;;5.82;2.17;;;;;;;17.12;59.33;101692.94;4678714;30;20044;-71
2022/07/28 08:31:12;;;;;;;6.43;2.03;;;;;;;17.21;59.25;101694.19;4681822;30;20476;-70
2022/07/28 08:33:37;;;;;;;9.70;2.05;;;;;;;17.28;59.24;101699.47;4681510;30;20045;-72
2022/07/28 08:36:03;;;;;;;7.97;1.95;;;;;;;17.35;60.08;101698.22;4679907;30;20092;-72
2022/07/28 08:38:28;;;;;;;5.93;1.75;;;;;;;17.39;59.39;101701.28;4681088;30;20061;-73
2022/07/28 08:40:56;;;;;;;6.05;2.00;;;;;;;17.43;58.80;101693.44;4681353;30;20049;-71
2022/07/28 08:43:31;;;;;;;4.50;1.80;;;;;;;17.45;59.10;101700.31;4680931;30;20034;-72
2022/07/28 08:45:59;;;;;;;7.50;1.80;;;;;;;17.50;58.66;101697.66;4681078;30;20042;-71
2022/07/28 08:48:28;;;;;;;7.18;2.22;;;;;;;17.53;58.44;101685.38;4681937;30;20030;-72
2022/07/28 08:50:59;;;;;;;5.53;2.10;;;;;;;17.61;58.26;101686.84;4681159;30;20073;-73
2022/07/28 08:53:26;;;;;;;7.57;2.33;;;;;;;17.64;57.41;101697.28;4680935;30;20388;-74
2022/07/28 08:55:52;;;;;;;7.78;1.95;;;;;;;17.65;58.04;101690.75;4682151;30;20120;-71
2022/07/28 08:58:18;;;;;;;4.57;1.70;;;;;;;17.72;58.42;101680.44;4678718;30;20695;-72
2022/07/28 09:00:44;;;;;;;7.13;2.10;;;;;;;17.85;57.50;101684.72;4678426;30;20053;-71
2022/07/28 09:03:11;;;;;;;9.18;2.55;;;;;;;17.94;57.22;101696.09;4699030;30;20470;-72
2022/07/28 09:05:41;;;;;;;7.10;1.90;;;;;;;17.94;57.18;101675.00;4698929;30;20041;-72
2022/07/28 09:08:06;;;;;;;6.47;1.80;;;;;;;18.02;57.84;101668.25;4699369;30;20048;-73
2022/07/28 09:10:31;;;;;;;6.78;2.20;;;;;;;18.06;56.45;101663.94;4699132;30;20041;-73
2022/07/28 09:12:57;;;;;;;7.82;2.00;;;;;;;18.09;56.31;101657.94;4695285;30;20037;-71
2022/07/28 09:15:22;;;;;;;10.10;1.88;;;;;;;18.20;56.67;101654.22;4679875;30;20042;-73
2022/07/28 09:17:47;;;;;;;4.32;2.00;;;;;;;18.25;55.74;101653.44;4680897;30;20038;-70
2022/07/28 09:20:13;;;;;;;7.97;2.13;;;;;;;18.34;56.10;101651.06;4677418;30;20038;-73
2022/07/28 09:22:59;;;;;;;4.65;1.70;;;;;;;18.40;56.73;101645.41;4681666;30;20375;-70
2022/07/28 09:25:26;;;;;;;8.18;1.67;;;;;;;18.50;55.72;101636.44;4682215;30;20034;-71
2022/07/28 09:27:52;;;;;;;5.70;1.80;;;;;;;18.58;55.83;101632.41;4678836;30;20030;-71
2022/07/28 09:30:31;;;;;;;5.47;1.90;;;;;;;18.64;55.59;101636.84;4679246;30;20037;-72
2022/07/28 09:33:21;;;;;;;4.55;2.15;;;;;;;18.69;55.49;101628.69;4681104;30;20101;-72
2022/07/28 09:35:54;;;;;;;3.50;1.67;;;;;;;18.70;54.42;101624.84;4678308;30;20042;-70
2022/07/28 09:38:22;;;;;;;8.25;1.88;;;;;;;18.79;54.66;101619.72;4667303;30;20035;-70
2022/07/28 09:41:02;;;;;;;6.65;1.90;;;;;;;18.87;55.04;101613.78;4652021;30;20476;-72
2022/07/28 09:43:35;;;;;;;9.13;2.05;;;;;;;18.93;54.69;101620.97;4674528;30;20042;-71
2022/07/28 09:46:09;;;;;;;6.20;1.92;;;;;;;19.05;54.41;101625.41;4680526;30;20069;-71
2022/07/28 09:48:50;;;;;;;6.18;1.70;;;;;;;19.10;53.70;101622.75;4669970;30;20097;-72
2022/07/28 09:51:22;;;;;;;9.00;2.10;;;;;;;19.17;53.29;101633.47;4667775;30;20038;-74
2022/07/28 09:53:48;;;;;;;5.85;1.70;;;;;;;19.24;53.26;101631.31;4667133;30;20046;-75
2022/07/28 09:56:13;;;;;;;9.98;1.80;;;;;;;19.34;53.46;101622.31;4668345;30;20427;-73
2022/07/28 09:58:40;;;;;;;6.47;2.08;;;;;;;19.38;52.34;101626.19;4654805;30;20030;-75
2022/07/28 10:01:19;;;;;;;8.98;2.17;;;;;;;19.36;51.53;101628.38;4676793;30;20073;-71
2022/07/28 10:03:50;;;;;;;7.40;2.00;;;;;;;19.34;51.83;101625.91;4687930;30;20030;-75
2022/07/28 10:06:27;;;;;;;9.20;2.22;;;;;;;19.34;52.21;101623.16;4683479;30;20065;-73
2022/07/28 10:08:54;;;;;;;5.22;1.60;;;;;;;19.40;51.34;101624.00;4683506;30;20030;-72
2022/07/28 10:11:25;;;;;;;10.82;1.95;;;;;;;19.42;50.70;101621.84;4665812;30;20038;-75
2022/07/28 10:14:03;;;;;;;8.60;2.13;;;;;;;19.50;51.76;101635.03;4666611;30;20031;-72
2022/07/28 10:16:33;;;;;;;9.02;2.20;;;;;;;19.48;50.30;101629.00;4667011;30;20038;-73
2022/07/28 10:19:01;;;;;;;5.40;1.67;;;;;;;19.50;50.27;101632.28;4682329;30;20087;-73
2022/07/28 10:21:29;;;;;;;7.18;1.40;;;;;;;19.54;50.58;101616.13;4684223;30;20042;-75
2022/07/28 10:23:58;;;;;;;6.85;1.67;;;;;;;19.65;50.02;101623.31;4662736;30;20361;-76
2022/07/28 10:26:30;;;;;;;9.15;2.05;;;;;;;19.71;49.78;101616.75;4672011;30;20459;-74
2022/07/28 10:28:56;;;;;;;6.20;1.77;;;;;;;19.81;49.46;101621.50;4681959;30;20041;-76
2022/07/28 10:31:49;;;;;;;4.43;1.65;;;;;;;19.90;49.46;101619.88;4664029;30;20034;-74
2022/07/28 10:34:26;;;;;;;8.02;1.70;;;;;;;19.97;49.26;101609.47;4674556;30;20046;-75
2022/07/28 10:36:54;;;;;;;55.65;25.15;;;;;;;20.09;49.13;101605.66;4682866;30;20038;-74
2022/07/28 10:39:23;;;;;;;10.88;3.40;;;;;;;20.18;49.00;101617.75;4683662;30;20105;-73
2022/07/28 10:41:50;;;;;;;10.27;2.58;;;;;;;20.30;48.23;101601.03;4667522;30;20038;-77
2022/07/28 10:44:18;;;;;;;6.43;1.80;;;;;;;20.38;47.53;101613.41;4682984;30;20387;-75
2022/07/28 10:46:44;;;;;;;7.90;1.65;;;;;;;20.33;47.54;101612.28;4668979;30;20124;-78
2022/07/28 10:49:12;;;;;;;4.85;2.30;;;;;;;20.34;48.31;101602.97;4683383;30;20595;-75
2022/07/28 10:51:41;;;;;;;8.13;2.15;;;;;;;20.42;47.90;101606.28;4683426;30;20038;-75
2022/07/28 10:54:12;;;;;;;7.45;1.80;;;;;;;20.45;48.00;101600.22;4683886;30;20044;-78
2022/07/28 10:56:53;;;;;;;5.80;1.90;;;;;;;20.50;48.55;101597.47;4683723;30;20104;-75
2022/07/28 10:59:47;;;;;;;5.50;1.98;;;;;;;20.57;47.54;101600.78;4651033;30;20439;-72
2022/07/28 11:02:41;;;;;;;4.70;1.58;;;;;;;20.65;47.03;101603.03;4685989;30;20475;-74
2022/07/28 11:05:37;;;;;;;3.72;1.58;;;;;;;20.66;47.26;101593.66;4700540;30;20383;-75
2022/07/28 11:08:27;;;;;;;3.58;1.83;;;;;;;20.71;48.08;101596.44;4683868;30;20061;-72
2022/07/28 11:10:53;;;;;;;6.35;2.08;;;;;;;20.78;46.67;101598.06;4664711;30;20151;-72
2022/07/28 11:13:24;;;;;;;6.50;1.50;;;;;;;20.89;46.29;101596.94;4659998;30;20391;-74
2022/07/28 11:15:52;;;;;;;7.90;1.70;;;;;;;20.98;45.36;101592.53;4682678;30;20072;-77
2022/07/28 11:18:18;;;;;;;6.30;1.40;;;;;;;21.08;44.80;101582.63;4682983;30;20129;-74
2022/07/28 11:20:59;;;;;;;6.47;1.48;;;;;;;21.13;45.36;101579.88;4665824;30;20042;-77
2022/07/28 11:23:48;;;;;;;3.77;1.23;;;;;;;21.21;46.54;101577.38;4663590;30;20045;-77
2022/07/28 11:26:36;;;;;;;7.53;1.50;;;;;;;21.37;46.21;101578.13;4674875;30;20034;-77
2022/07/28 11:29:07;;;;;;;4.82;1.40;;;;;;;21.40;45.42;101572.06;4679688;30;20386;-79
2022/07/28 11:31:48;;;;;;;;;;;;;;;21.54;46.63;101571.50;4662935;30;20484;-77
2022/07/28 11:34:15;;;;;;;4.57;1.23;;;;;;;21.58;44.35;101569.84;4673561;30;20435;-76
2022/07/28 11:37:08;;;;;;;6.57;1.80;;;;;;;21.58;45.20;101575.34;4679865;30;20026;-71
2022/07/28 11:39:35;;;;;;;8.27;1.27;;;;;;;21.57;44.60;101559.91;4672780;30;20552;-71
2022/07/28 11:42:26;;;;;;;5.32;1.27;;;;;;;21.67;45.35;101568.16;4665922;30;20029;-70
2022/07/28 11:44:53;;;;;;;3.45;1.30;;;;;;;21.54;42.84;101555.81;4666128;30;20113;-68
2022/07/28 11:47:23;;;;;;;5.63;1.67;;;;;;;21.43;44.53;101554.97;4681759;30;20424;-69
2022/07/28 11:50:14;;;;;;;6.55;1.70;;;;;;;21.49;45.06;101549.47;4675204;30;20038;-70
2022/07/28 11:52:51;;;;;;;8.00;1.65;;;;;;;21.56;44.45;101544.53;4679303;30;20022;-71
2022/07/28 11:55:17;;;;;;;9.05;1.60;;;;;;;21.67;43.46;101542.53;4677075;30;20042;-71
2022/07/28 11:57:44;;;;;;;6.25;1.48;;;;;;;21.83;43.37;101548.78;4680646;30;20357;-71
2022/07/28 12:00:10;;;;;;;7.80;1.85;;;;;;;21.88;42.93;101548.75;4679730;30;20037;-71
2022/07/28 12:02:35;;;;;;;6.18;1.33;;;;;;;21.98;42.98;101545.91;4680357;30;20057;-70
2022/07/28 12:05:04;;;;;;;7.63;1.45;;;;;;;22.01;42.28;101550.88;4682182;30;20037;-70
2022/07/28 12:07:42;;;;;;;5.55;1.50;;;;;;;22.05;42.80;101540.91;4665536;30;20041;-69
2022/07/28 12:10:24;;;;;;;8.05;1.27;;;;;;;22.19;43.24;101543.03;4680877;30;20518;-69
2022/07/28 12:12:54;;;;;;;4.32;1.15;;;;;;;22.35;42.60;101541.84;4674594;30;20128;-70
2022/07/28 12:15:20;;;;;;;6.00;1.50;;;;;;;22.60;42.09;101545.50;4666212;30;20056;-70
2022/07/28 12:17:47;;;;;;;10.30;1.48;;;;;;;22.62;41.46;101537.78;4680937;30;20412;-70
2022/07/28 12:20:16;;;;;;;4.55;1.55;;;;;;;22.58;41.59;101543.03;4679431;30;20464;-70
2022/07/28 12:22:54;;;;;;;4.13;1.20;;;;;;;22.60;42.28;101545.50;4677111;30;20117;-70
2022/07/28 12:25:19;;;;;;;8.82;2.08;;;;;;;22.71;41.62;101547.06;4680891;30;20038;-71
2022/07/28 12:27:44;;;;;;;6.35;1.42;;;;;;;22.71;40.48;101540.72;4679308;30;20491;-72